Nearby METAR Reports

 

KMQS - Coatesville, Pennsylvania, USA
Distance from station: NW 12mi, 19km
Updated: Sun, 26-May-2019 6:55pm EDT
Clear
Clear
 Wind from WNW
Wind: WNW 6 mph , 9 km/h
Temperature: 77°F , 25°C
Dew Point: 63°F , 17°C
Humidity: 61%
Barometer: 29.95 inHg , 1014.2 hPa
Clouds: Clear
Visibility: 10 miles , 16 km
2019/05/26 22:55 KMQS 262255Z AUTO 30005KT 10SM CLR 25/17 A2995 RMK AO2
KOQN - West Chester, Pennsylvania, USA
Distance from station: NE 13mi, 21km
Updated: Sun, 26-May-2019 6:55pm EDT
Partly cloudy
Partly cloudy
 Wind from WSW
Wind: WSW 3 mph , 6 km/h
Temperature: 73°F , 23°C
Dew Point: 70°F , 21°C
Humidity: 89%
Barometer: 29.94 inHg , 1013.9 hPa
Clouds: Partly cloudy
Visibility: 10 miles , 16 km
Cloud details: Partly cloudy 12000 ft
2019/05/26 22:55 KOQN 262255Z AUTO 24003KT 10SM SCT120 23/21 A2994 RMK AO2 P0001
 
KILG - Wilmington, Delaware, USA
Distance from station: SSE 14mi, 23km
Updated: Sun, 26-May-2019 6:51pm EDT
Clear
Clear
 Wind from WNW
Wind: WNW 10 mph , 17 km/h
Temperature: 82°F , 28°C
Heat Index: 84°F , 29°C
Dew Point: 64°F , 18°C
Humidity: 55%
Barometer: 29.91 inHg , 1012.9 hPa
Clouds: Clear
Visibility: 10 miles , 16 km
2019/05/26 22:51 KILG 262251Z 30009KT 10SM CLR 28/18 A2991 RMK AO2 SLP128 T02830178
KPHL - Philadelphia, Pennsylvania, USA
Distance from station: E 27mi, 43km
Updated: Sun, 26-May-2019 6:54pm EDT
Mostly cloudy
Mostly cloudy
 Wind from NW
Wind: NW 8 mph , 13 km/h
Temperature: 79°F , 26°C
Dew Point: 70°F , 21°C
Humidity: 74%
Barometer: 29.90 inHg , 1012.5 hPa
Clouds: Mostly cloudy
Visibility: 10 miles , 16 km
Cloud details: Few Clouds 5500 ft
Mostly cloudy 9000 ft
Mostly cloudy 20000 ft
2019/05/26 22:54 KPHL 262254Z 31007KT 10SM FEW055 BKN090 BKN200 26/21 A2990 RMK AO2 RAB11E33 SLP124 P0001 T02610206
 
KPTW - Pottstown, Pennsylvania, USA
Distance from station: NNE 29mi, 47km
Updated: Sun, 26-May-2019 6:54pm EDT

 Wind from W
Wind: W 5 mph , 7 km/h
Temperature: 73°F , 23°C
Dew Point: 64°F , 18°C
Humidity: 74%
Barometer: 29.93 inHg , 1013.5 hPa
Visibility: 10 miles , 16 km
2019/05/26 22:54 KPTW 262254Z AUTO 27004KT 10SM 23/18 A2993 RMK AO2 SLP130 T02280183 $
KLOM - Philly Wings F, Pennsylvania, USA
Distance from station: NE 32mi, 52km
Updated: Sun, 26-May-2019 6:55pm EDT
Mostly cloudy
Mostly cloudy
 Wind from SW
Wind: SW 6 mph , 9 km/h
Temperature: 73°F , 23°C
Dew Point: 68°F , 20°C
Humidity: 83%
Barometer: 29.91 inHg , 1012.9 hPa
Clouds: Mostly cloudy
Visibility: 10 miles , 16 km
Cloud details: Mostly cloudy 9000 ft
2019/05/26 22:55 KLOM 262255Z AUTO 22005KT 10SM BKN090 23/20 A2991 RMK AO2 T02340203
 
KAPG - Aberdeen/Phillip, Maryland, USA
Distance from station: SW 34mi, 55km
Updated: Fri, 24-May-2019 7:46pm EDT
NOT Current
Mostly cloudy
Mostly cloudy
 Wind from WSW
Wind: WSW 6 mph , 9 km/h
Temperature: 77°F , 25°C
Dew Point: 50°F , 10°C
Humidity: 39%
Barometer: 30.06 inHg , 1017.9 hPa
Clouds: Mostly cloudy
Visibility: 7 miles , 11 km
Cloud details: Partly cloudy 12000 ft
Mostly cloudy 20000 ft
2019/05/24 23:46 KAPG 242346Z 24005KT 7SM SCT120 BKN200 25/10 A3006
KLNS - Lancaster, Pennsylvania, USA
Distance from station: WNW 35mi, 57km
Updated: Sun, 26-May-2019 6:53pm EDT
Overcast
Overcast
 Wind from NNW
Wind: NNW 3 mph , 6 km/h
Temperature: 77°F , 25°C
Dew Point: 66°F , 19°C
Humidity: 69%
Barometer: 29.93 inHg , 1013.5 hPa
Clouds: Overcast
Visibility: 10 miles , 16 km
Cloud details: Overcast 5000 ft
2019/05/26 22:53 KLNS 262253Z 34003KT 10SM OVC050 25/19 A2993 RMK AO2 SLP132 T02500189
 
KRDG - Reading, Pennsylvania, USA
Distance from station: NNW 38mi, 62km
Updated: Sun, 26-May-2019 6:54pm EDT
Light rain, Clear
Light rain, Clear
 Wind from WSW
Wind: WSW 6 mph , 9 km/h
Temperature: 73°F , 23°C
Dew Point: 70°F , 21°C
Humidity: 89%
Barometer: 29.91 inHg , 1012.9 hPa
Summary: Light rain
Clouds: Clear
Visibility: 10 miles , 16 km
2019/05/26 22:54 KRDG 262254Z 25005KT 10SM -RA CLR 23/21 A2991 RMK AO2 RAB06RAEMMB41 SLP130 P0000 T02330211 $
KPNE - Philadelphia/Ne, Pennsylvania, USA
Distance from station: ENE 42mi, 67km
Updated: Sun, 26-May-2019 6:54pm EDT
Partly cloudy
Partly cloudy
 Wind from W
Wind: W 7 mph , 11 km/h
Temperature: 79°F , 26°C
Dew Point: 66°F , 19°C
Humidity: 65%
Barometer: 29.91 inHg , 1012.9 hPa
Clouds: Partly cloudy
Visibility: 10 miles , 16 km
Cloud details: Partly cloudy 10000 ft
2019/05/26 22:54 KPNE 262254Z 28006KT 10SM SCT100 26/19 A2991 RMK AO2 RAB2158E23 SLP126 P0001 T02560194 $
 
KCKZ - Perkasie, Pennsylvania, USA
Distance from station: NNE 45mi, 72km
Updated: Sun, 26-May-2019 6:55pm EDT
Clear
Clear
 Wind from WSW
Wind: WSW 6 mph , 9 km/h
Temperature: 72°F , 22°C
Dew Point: 72°F , 22°C
Humidity: 100%
Barometer: 29.92 inHg , 1013.2 hPa
Clouds: Clear
Visibility: 10 miles , 16 km
2019/05/26 22:55 KCKZ 262255Z AUTO 25005KT 10SM CLR 22/22 A2992 RMK AO2
KUKT - Quakertown Arp, Pennsylvania, USA
Distance from station: NNE 45mi, 73km
Updated: Sun, 26-May-2019 7:00pm EDT
Clear
Clear
 Wind from WSW
Wind: WSW 5 mph , 7 km/h
Temperature: 75°F , 24°C
Dew Point: 70°F , 21°C
Humidity: 83%
Barometer: 29.91 inHg , 1012.9 hPa
Clouds: Clear
Visibility: 10 miles , 16 km
2019/05/26 23:00 KUKT 262300Z AUTO 24004KT 10SM CLR 24/21 A2991 RMK A01
 
KDYL - Doylestown, Pennsylvania, USA
Distance from station: NE 47mi, 76km
Updated: Sun, 26-May-2019 6:54pm EDT
Clear
Clear
 Wind from SW
Wind: SW 6 mph , 9 km/h
Temperature: 73°F , 23°C
Dew Point: 70°F , 21°C
Humidity: 89%
Barometer: 29.90 inHg , 1012.5 hPa
Clouds: Clear
Visibility: 10 miles , 16 km
2019/05/26 22:54 KDYL 262254Z AUTO 23005KT 10SM CLR 23/21 A2990 RMK AO2 RAE10 SLP121 T02330206 PNO $
KMIV - Millville, New Jersey, USA
Distance from station: SE 48mi, 77km
Updated: Sun, 26-May-2019 6:54pm EDT
Clear
Clear
 Wind from WSW
Wind: WSW 5 mph , 7 km/h
Temperature: 81°F , 27°C
Heat Index: 85°F , 29°C
Dew Point: 70°F , 21°C
Humidity: 70%
Barometer: 29.90 inHg , 1012.5 hPa
Clouds: Clear
Visibility: 10 miles , 16 km
2019/05/26 22:54 KMIV 262254Z AUTO 24004KT 10SM CLR 27/21 A2990 RMK AO2 SLP122 T02720206
 
KVAY - Mount Holly, New Jersey, USA
Distance from station: E 48mi, 78km
Updated: Sun, 26-May-2019 6:54pm EDT
Mostly cloudy
Mostly cloudy
 Wind from W
Wind: W 3 mph , 6 km/h
Temperature: 75°F , 24°C
Dew Point: 66°F , 19°C
Humidity: 74%
Barometer: 29.89 inHg , 1012.2 hPa
Clouds: Mostly cloudy
Visibility: 10 miles , 16 km
Cloud details: Few Clouds 4800 ft
Partly cloudy 6000 ft
Mostly cloudy 9500 ft
2019/05/26 22:54 KVAY 262254Z AUTO 28003KT 10SM FEW048 SCT060 BKN095 24/19 A2989 RMK AO2 RAB17E47 SLP122 P0000 T02390194